createdAt,value
2022-11-24T00:01:21.051Z,1.60
2022-11-24T00:04:24.059Z,1.88
2022-11-24T00:07:25.551Z,1.83
2022-11-24T00:10:26.960Z,1.50
2022-11-24T00:13:28.396Z,1.80
2022-11-24T00:16:32.151Z,1.40
2022-11-24T00:19:33.563Z,1.60
2022-11-24T00:22:34.970Z,1.67
2022-11-24T00:25:36.564Z,1.77
2022-11-24T00:28:38.692Z,1.60
2022-11-24T00:31:41.882Z,1.48
2022-11-24T00:34:43.295Z,1.50
2022-11-24T00:37:44.699Z,1.23
2022-11-24T00:40:46.099Z,1.60
2022-11-24T00:43:47.517Z,1.37
2022-11-24T00:46:49.084Z,1.50
2022-11-24T00:49:50.607Z,1.40
2022-11-24T00:52:52.014Z,1.80
2022-11-24T00:55:53.987Z,1.55
2022-11-24T00:58:55.476Z,1.70
2022-11-24T01:01:56.918Z,1.47
2022-11-24T01:04:58.492Z,1.73
2022-11-24T01:07:59.925Z,1.30
2022-11-24T01:11:14.173Z,1.48
2022-11-24T01:14:15.569Z,1.30
2022-11-24T01:17:17.137Z,1.20
2022-11-24T01:20:18.570Z,1.20
2022-11-24T01:23:20.010Z,1.60
2022-11-24T01:26:22.219Z,1.50
2022-11-24T01:29:23.863Z,1.20
2022-11-24T01:32:25.301Z,1.50
2022-11-24T01:35:28.086Z,1.67
2022-11-24T01:38:29.722Z,1.58
2022-11-24T01:41:31.279Z,1.73
2022-11-24T01:44:33.619Z,1.60
2022-11-24T01:47:40.704Z,1.60
2022-11-24T01:50:43.147Z,1.60
2022-11-24T01:56:53.683Z,1.35
2022-11-24T02:00:02.112Z,1.60
2022-11-24T02:03:19.243Z,1.48
2022-11-24T02:06:27.869Z,1.75
2022-11-24T02:09:55.739Z,2.28
2022-11-24T02:12:59.518Z,2.58
2022-11-24T02:16:02.299Z,1.70
2022-11-24T02:19:12.855Z,1.80
2022-11-24T02:22:41.017Z,1.70
2022-11-24T02:26:20.876Z,1.67
2022-11-24T02:29:22.460Z,1.70
2022-11-24T02:32:24.101Z,1.65
2022-11-24T02:35:27.393Z,1.83
2022-11-24T02:38:31.094Z,1.80
2022-11-24T02:41:32.521Z,1.70
2022-11-24T02:44:40.406Z,1.60
2022-11-24T02:47:41.926Z,1.55
2022-11-24T02:50:43.441Z,1.67
2022-11-24T02:53:45.243Z,1.80
2022-11-24T02:56:46.692Z,1.88
2022-11-24T02:59:48.086Z,1.80
2022-11-24T03:02:49.682Z,1.98
2022-11-24T03:05:51.242Z,1.80
2022-11-24T03:08:52.632Z,1.80
2022-11-24T03:11:54.044Z,1.60
2022-11-24T03:14:55.496Z,2.17
2022-11-24T03:17:56.994Z,1.80
2022-11-24T03:21:01.371Z,1.80
2022-11-24T03:24:02.855Z,2.08
2022-11-24T03:27:04.677Z,1.83
2022-11-24T03:30:06.809Z,1.95
2022-11-24T03:33:08.295Z,1.67
2022-11-24T03:36:09.988Z,2.10
2022-11-24T03:39:11.438Z,1.60
2022-11-24T03:42:12.979Z,1.83
2022-11-24T03:45:45.542Z,1.80
2022-11-24T03:48:36.246Z,1.77
2022-11-24T03:51:37.696Z,2.10
2022-11-24T03:54:39.156Z,1.97
2022-11-24T03:57:40.560Z,1.73
2022-11-24T04:00:42.203Z,1.80
2022-11-24T04:03:43.841Z,2.47
2022-11-24T04:06:45.250Z,2.20
2022-11-24T04:09:46.710Z,2.25
2022-11-24T04:12:48.126Z,2.07
2022-11-24T04:15:49.855Z,1.98
2022-11-24T04:18:54.567Z,1.73
2022-11-24T04:21:56.056Z,2.42
2022-11-24T04:24:57.464Z,2.33
2022-11-24T04:27:58.986Z,2.55
2022-11-24T04:31:04.570Z,2.00
2022-11-24T04:34:06.052Z,3.08
2022-11-24T04:37:07.447Z,2.00
2022-11-24T04:40:10.846Z,2.35
2022-11-24T04:43:12.347Z,2.13
2022-11-24T04:46:13.833Z,2.50
2022-11-24T04:49:15.322Z,2.53
2022-11-24T04:52:19.462Z,2.17
2022-11-24T04:55:21.012Z,3.10
2022-11-24T04:58:22.422Z,1.93
2022-11-24T05:01:23.892Z,2.33
2022-11-24T05:04:25.445Z,2.17
2022-11-24T05:07:27.501Z,2.60
2022-11-24T05:10:37.954Z,2.53
2022-11-24T05:13:39.383Z,2.65
2022-11-24T05:16:40.854Z,2.30
2022-11-24T05:19:42.544Z,2.50
2022-11-24T05:22:44.267Z,2.67
2022-11-24T05:25:47.779Z,2.15
2022-11-24T05:28:49.465Z,2.40
2022-11-24T05:31:50.903Z,3.23
2022-11-24T05:34:53.872Z,2.03
2022-11-24T05:37:55.343Z,3.03
2022-11-24T05:41:05.167Z,3.30
2022-11-24T05:44:06.745Z,2.30
2022-11-24T05:47:08.179Z,3.50
2022-11-24T05:50:12.679Z,2.50
2022-11-24T05:53:14.212Z,2.67
2022-11-24T05:56:15.618Z,2.50
2022-11-24T05:59:17.059Z,2.85
2022-11-24T06:02:19.156Z,2.47
2022-11-24T06:05:20.750Z,3.38
2022-11-24T06:08:25.542Z,3.03
2022-11-24T06:11:29.556Z,3.22
2022-11-24T06:14:31.035Z,3.27
2022-11-24T06:17:32.517Z,2.90
2022-11-24T06:20:33.961Z,3.17
2022-11-24T06:23:35.946Z,2.75
2022-11-24T06:26:37.335Z,3.50
2022-11-24T06:29:39.181Z,3.22
2022-11-24T06:32:49.177Z,3.25
2022-11-24T06:35:51.174Z,2.80
2022-11-24T06:38:53.085Z,2.87
2022-11-24T06:41:54.534Z,3.47
2022-11-24T06:44:55.994Z,2.60
2022-11-24T06:47:57.749Z,3.10
2022-11-24T06:51:00.629Z,3.05
2022-11-24T06:54:02.373Z,2.70
2022-11-24T06:57:03.856Z,2.80
2022-11-24T07:00:07.915Z,3.10
2022-11-24T07:03:16.263Z,3.00
2022-11-24T07:06:19.028Z,3.60
2022-11-24T07:09:20.431Z,3.60
2022-11-24T07:12:21.968Z,3.43
2022-11-24T07:15:23.348Z,3.80
2022-11-24T07:18:24.744Z,3.17
2022-11-24T07:21:28.080Z,3.42
2022-11-24T07:24:29.503Z,3.80
2022-11-24T07:27:30.935Z,2.93
2022-11-24T07:30:32.372Z,3.88
2022-11-24T07:33:34.230Z,7.57
2022-11-24T07:36:35.709Z,5.32
2022-11-24T07:39:37.193Z,4.17
2022-11-24T07:42:38.606Z,3.20
2022-11-24T07:45:40.057Z,3.25
2022-11-24T07:48:41.504Z,2.73
2022-11-24T07:51:42.896Z,2.92
2022-11-24T07:54:44.337Z,3.58
2022-11-24T07:57:45.766Z,3.20
2022-11-24T08:00:47.606Z,3.07
2022-11-24T08:03:49.072Z,2.83
2022-11-24T08:06:50.681Z,4.70
2022-11-24T08:09:52.332Z,6.30
2022-11-24T08:12:53.783Z,6.57
2022-11-24T08:15:55.211Z,9.20
2022-11-24T08:18:56.760Z,7.30
2022-11-24T08:21:58.135Z,2.70
2022-11-24T08:24:59.592Z,3.08
2022-11-24T08:28:02.752Z,3.37
2022-11-24T08:31:06.060Z,2.30
2022-11-24T08:34:07.580Z,3.95
2022-11-24T08:37:08.971Z,3.83
2022-11-24T08:40:11.216Z,6.60
2022-11-24T08:43:12.682Z,7.97
2022-11-24T08:46:18.887Z,7.53
2022-11-24T08:49:21.551Z,7.10
2022-11-24T08:52:23.046Z,7.05
2022-11-24T08:55:24.489Z,5.20
2022-11-24T08:58:25.871Z,4.13
2022-11-24T09:01:28.911Z,3.80
2022-11-24T09:04:30.471Z,4.80
2022-11-24T09:07:31.947Z,4.40
2022-11-24T09:10:33.394Z,4.00
2022-11-24T09:13:35.729Z,3.47
2022-11-24T09:19:38.577Z,2.63
2022-11-24T09:22:41.617Z,2.60
2022-11-24T09:25:43.103Z,3.92
2022-11-24T09:28:45.699Z,3.67
2022-11-24T09:31:47.081Z,3.13
2022-11-24T09:34:50.780Z,3.83
2022-11-24T09:37:52.260Z,2.92
2022-11-24T09:40:56.554Z,2.60
2022-11-24T09:44:06.252Z,2.85
2022-11-24T09:47:41.872Z,3.85
2022-11-24T09:50:46.021Z,3.08
2022-11-24T09:53:54.923Z,2.42
2022-11-24T09:57:00.776Z,2.55
2022-11-24T10:00:10.870Z,3.17
2022-11-24T10:03:23.464Z,2.80
2022-11-24T10:06:44.525Z,2.78
2022-11-24T10:10:00.824Z,2.60
2022-11-24T10:13:30.690Z,2.58
2022-11-24T10:16:51.664Z,2.47
2022-11-24T10:20:14.975Z,2.95
2022-11-24T10:23:39.844Z,2.13
2022-11-24T10:26:51.386Z,2.20
2022-11-24T10:29:52.961Z,2.50
2022-11-24T10:33:02.637Z,2.65
2022-11-24T10:36:12.897Z,2.20
2022-11-24T10:39:23.709Z,2.47
2022-11-24T10:42:29.414Z,2.15
2022-11-24T10:45:32.012Z,2.13
2022-11-24T10:48:40.367Z,3.00
2022-11-24T10:51:52.783Z,2.40
2022-11-24T10:58:15.593Z,2.33
2022-11-24T11:01:16.939Z,2.45
2022-11-24T11:04:21.314Z,2.17
2022-11-24T11:07:25.558Z,2.15
2022-11-24T11:10:27.045Z,2.10
2022-11-24T11:13:30.458Z,2.50
2022-11-24T11:16:39.240Z,1.95
2022-11-24T11:19:49.563Z,2.78
2022-11-24T11:22:51.688Z,2.70
2022-11-24T11:26:27.715Z,2.47
2022-11-24T11:36:17.339Z,2.67
2022-11-24T11:39:24.761Z,1.90
2022-11-24T11:43:02.242Z,1.50
2022-11-24T11:46:17.607Z,1.45
2022-11-24T11:49:19.234Z,2.03
2022-11-24T11:52:54.695Z,1.73
2022-11-24T11:56:08.280Z,1.30
2022-11-24T12:00:03.615Z,1.20
2022-11-24T12:03:32.576Z,1.05
2022-11-24T12:06:59.323Z,2.03
2022-11-24T12:10:19.509Z,1.40
2022-11-24T12:13:32.964Z,1.50
2022-11-24T12:16:54.913Z,2.00
2022-11-24T12:19:58.976Z,1.60
2022-11-24T12:24:04.168Z,1.58
2022-11-24T12:27:10.729Z,1.75
2022-11-24T12:30:17.275Z,1.60
2022-11-24T12:33:50.501Z,1.40
2022-11-24T12:37:26.541Z,1.80
2022-11-24T12:40:35.648Z,1.70
2022-11-24T12:43:40.167Z,1.25
2022-11-24T12:47:08.697Z,1.70
2022-11-24T12:50:16.240Z,1.60
2022-11-24T12:53:28.432Z,1.90
2022-11-24T12:56:42.466Z,1.50
2022-11-24T13:00:16.046Z,1.77
2022-11-24T13:04:08.186Z,1.48
2022-11-24T13:07:14.748Z,1.70
2022-11-24T13:14:28.120Z,1.40
2022-11-24T13:20:44.877Z,1.92
2022-11-24T13:23:59.889Z,2.20
2022-11-24T13:27:13.462Z,1.48
2022-11-24T13:30:33.106Z,1.45
2022-11-24T13:33:35.615Z,1.50
2022-11-24T13:40:03.015Z,1.98
2022-11-24T13:43:04.430Z,1.70
2022-11-24T13:46:09.607Z,1.57
2022-11-24T13:49:14.138Z,1.65
2022-11-24T13:52:34.668Z,1.40
2022-11-24T13:55:38.966Z,1.80
2022-11-24T13:58:43.665Z,1.40
2022-11-24T14:01:46.758Z,1.85
2022-11-24T14:04:48.802Z,1.50
2022-11-24T14:07:52.932Z,1.48
2022-11-24T14:11:00.181Z,1.52
2022-11-24T14:14:15.959Z,2.33
2022-11-24T14:17:23.597Z,3.20
2022-11-24T14:20:27.263Z,2.53
2022-11-24T14:23:28.817Z,1.90
2022-11-24T14:26:40.998Z,2.50
2022-11-24T14:30:15.349Z,1.92
2022-11-24T14:33:19.718Z,1.88
2022-11-24T14:36:21.149Z,1.60
2022-11-24T14:39:25.295Z,1.80
2022-11-24T14:42:27.559Z,1.95
2022-11-24T14:48:33.379Z,2.00
2022-11-24T14:51:43.166Z,1.70
2022-11-24T14:54:48.280Z,1.92
2022-11-24T14:57:49.819Z,2.33
2022-11-24T15:01:32.503Z,2.80
2022-11-24T15:08:03.424Z,2.30
2022-11-24T15:11:06.341Z,1.85
2022-11-24T15:14:47.582Z,2.85
2022-11-24T15:17:59.129Z,3.90
2022-11-24T15:21:00.907Z,3.80
2022-11-24T15:24:07.130Z,3.67
2022-11-24T15:27:08.634Z,3.40
2022-11-24T15:30:12.422Z,4.10
2022-11-24T15:33:16.561Z,4.30
2022-11-24T15:36:19.431Z,3.72
2022-11-24T15:39:20.845Z,3.40
2022-11-24T15:42:22.220Z,3.80
2022-11-24T15:45:26.319Z,4.13
2022-11-24T15:48:28.951Z,4.32
2022-11-24T15:51:31.559Z,4.28
2022-11-24T15:54:33.383Z,4.32
2022-11-24T15:57:35.032Z,4.95
2022-11-24T16:00:37.701Z,4.60
2022-11-24T16:03:46.787Z,5.28
2022-11-24T16:06:49.103Z,5.20
2022-11-24T16:09:50.529Z,5.80
2022-11-24T16:12:51.924Z,5.00
2022-11-24T16:15:53.670Z,5.95
2022-11-24T16:18:55.272Z,5.93
2022-11-24T16:21:56.756Z,7.20
2022-11-24T16:24:58.242Z,6.23
2022-11-24T16:27:59.720Z,5.63
2022-11-24T16:31:01.218Z,7.10
2022-11-24T16:34:02.685Z,7.33
2022-11-24T16:37:04.121Z,6.60
2022-11-24T16:40:06.317Z,6.47
2022-11-24T16:43:07.722Z,5.90
2022-11-24T16:46:09.144Z,6.07
2022-11-24T16:49:10.600Z,7.70
2022-11-24T16:52:12.156Z,8.02
2022-11-24T16:55:14.209Z,9.07
2022-11-24T16:58:15.624Z,8.63
2022-11-24T17:01:17.115Z,7.27
2022-11-24T17:04:18.574Z,6.20
2022-11-24T17:07:20.538Z,6.88
2022-11-24T17:10:22.013Z,6.90
2022-11-24T17:13:24.376Z,7.80
2022-11-24T17:19:27.408Z,5.82
2022-11-24T17:22:28.811Z,6.67
2022-11-24T17:25:32.011Z,5.57
2022-11-24T17:28:34.088Z,4.97
2022-11-24T17:31:36.111Z,5.40
2022-11-24T17:34:37.799Z,4.30
2022-11-24T17:37:39.233Z,4.72
2022-11-24T17:40:45.667Z,5.73
2022-11-24T17:43:55.718Z,5.60
2022-11-24T17:46:58.809Z,4.72
2022-11-24T17:50:00.288Z,5.57
2022-11-24T17:53:01.768Z,4.83
2022-11-24T17:56:04.399Z,4.43
2022-11-24T17:59:05.905Z,4.10
2022-11-24T18:02:09.382Z,5.33
2022-11-24T18:05:10.901Z,5.70
2022-11-24T18:08:12.324Z,5.00
2022-11-24T18:11:38.172Z,5.45
2022-11-24T18:14:39.634Z,5.35
2022-11-24T18:17:41.025Z,5.63
2022-11-24T18:20:42.506Z,5.75
2022-11-24T18:23:44.756Z,5.50
2022-11-24T18:26:46.224Z,5.45
2022-11-24T18:29:52.022Z,5.07
2022-11-24T18:32:58.242Z,4.70
2022-11-24T18:36:01.463Z,4.70
2022-11-24T18:39:05.746Z,5.18
2022-11-24T18:42:07.233Z,5.32
2022-11-24T18:45:09.076Z,4.57
2022-11-24T18:48:10.521Z,4.57
2022-11-24T18:51:15.861Z,4.68
2022-11-24T18:54:17.430Z,4.93
2022-11-24T18:57:18.991Z,5.25
2022-11-24T19:00:20.607Z,4.73
2022-11-24T19:03:22.224Z,4.83
2022-11-24T19:06:32.909Z,4.67
2022-11-24T19:09:34.443Z,5.20
2022-11-24T19:12:35.918Z,4.23
2022-11-24T19:15:37.302Z,4.70
2022-11-24T19:18:38.799Z,4.70
2022-11-24T19:21:40.911Z,4.70
2022-11-24T19:24:42.567Z,3.95
2022-11-24T19:27:44.024Z,3.97
2022-11-24T19:30:45.438Z,4.10
2022-11-24T19:33:47.254Z,4.35
2022-11-24T19:36:48.773Z,4.72
2022-11-24T19:39:50.995Z,4.17
2022-11-24T19:45:55.249Z,3.85
2022-11-24T19:49:00.305Z,5.30
2022-11-24T19:52:02.506Z,4.07
2022-11-24T19:55:07.188Z,6.50
2022-11-24T19:58:09.040Z,6.10
2022-11-24T20:01:34.168Z,4.28
2022-11-24T20:04:39.587Z,4.25
2022-11-24T20:07:41.108Z,3.03
2022-11-24T20:10:42.654Z,3.70
2022-11-24T20:13:45.436Z,3.40
2022-11-24T20:16:47.572Z,4.30
2022-11-24T20:19:49.046Z,3.83
2022-11-24T20:22:50.427Z,3.95
2022-11-24T20:25:51.878Z,3.65
2022-11-24T20:28:55.188Z,3.70
2022-11-24T20:31:56.950Z,4.13
2022-11-24T20:34:58.497Z,4.53
2022-11-24T20:37:59.896Z,4.18
2022-11-24T20:41:09.192Z,4.43
2022-11-24T20:44:15.327Z,3.78
2022-11-24T20:47:17.046Z,3.80
2022-11-24T20:50:18.570Z,4.20
2022-11-24T20:53:20.114Z,4.13
2022-11-24T20:56:23.746Z,5.47
2022-11-24T20:59:25.742Z,5.50
2022-11-24T21:02:27.322Z,6.30
2022-11-24T21:05:28.773Z,5.27
2022-11-24T21:08:38.567Z,4.75
2022-11-24T21:11:40.086Z,4.90
2022-11-24T21:14:41.679Z,4.70
2022-11-24T21:17:43.167Z,3.97
2022-11-24T21:20:45.111Z,5.90
2022-11-24T21:23:47.724Z,5.47
2022-11-24T21:26:51.681Z,5.78
2022-11-24T21:29:53.439Z,4.93
2022-11-24T21:32:54.953Z,4.30
2022-11-24T21:36:02.334Z,3.50
2022-11-24T21:39:04.092Z,3.50
2022-11-24T21:42:05.783Z,3.67
2022-11-24T21:45:10.678Z,3.08
2022-11-24T21:48:12.212Z,4.00
2022-11-24T21:51:16.527Z,3.70
2022-11-24T21:54:17.939Z,3.60
2022-11-24T21:57:19.323Z,3.50
2022-11-24T22:00:20.869Z,3.15
2022-11-24T22:03:22.379Z,4.18
2022-11-24T22:06:24.054Z,3.25
2022-11-24T22:09:25.491Z,3.20
2022-11-24T22:12:28.525Z,3.30
2022-11-24T22:15:30.010Z,3.05
2022-11-24T22:18:37.856Z,3.87
2022-11-24T22:21:39.293Z,3.67
2022-11-24T22:24:41.203Z,3.70
2022-11-24T22:27:42.834Z,4.72
2022-11-24T22:30:44.305Z,4.05
2022-11-24T22:33:46.535Z,5.00
2022-11-24T22:36:48.084Z,4.47
2022-11-24T22:39:49.716Z,3.37
2022-11-24T22:42:51.164Z,4.07
2022-11-24T22:45:52.600Z,4.20
2022-11-24T22:48:54.862Z,4.35
2022-11-24T22:51:56.287Z,3.80
2022-11-24T22:54:57.669Z,2.88
2022-11-24T22:57:59.083Z,2.90
2022-11-24T23:01:12.179Z,3.00
2022-11-24T23:04:13.655Z,3.00
2022-11-24T23:07:15.340Z,3.28
2022-11-24T23:10:16.918Z,3.80
2022-11-24T23:13:18.372Z,3.75
2022-11-24T23:16:20.628Z,3.67
2022-11-24T23:19:22.048Z,3.95
2022-11-24T23:22:23.479Z,3.22
2022-11-24T23:25:24.874Z,3.33
2022-11-24T23:28:26.340Z,3.28
2022-11-24T23:31:31.233Z,2.70
2022-11-24T23:34:32.880Z,2.50
2022-11-24T23:37:59.989Z,2.40
2022-11-24T23:40:56.876Z,2.38
2022-11-24T23:43:58.687Z,2.17
2022-11-24T23:47:00.069Z,2.63
2022-11-24T23:50:01.459Z,2.22
2022-11-24T23:53:02.872Z,2.35
2022-11-24T23:56:05.071Z,2.05
2022-11-24T23:59:06.475Z,1.90
